createdAt,value
2022-09-01T00:01:56.692Z,6.57
2022-09-01T00:07:37.009Z,6.05
2022-09-01T00:10:27.175Z,5.40
2022-09-01T00:13:17.386Z,7.07
2022-09-01T00:16:07.229Z,6.60
2022-09-01T00:18:58.977Z,5.85
2022-09-01T00:21:49.433Z,6.25
2022-09-01T00:24:39.704Z,6.10
2022-09-01T00:27:30.620Z,5.40
2022-09-01T00:30:21.262Z,5.53
2022-09-01T00:33:10.902Z,6.10
2022-09-01T00:36:02.078Z,5.97
2022-09-01T00:38:53.192Z,5.38
2022-09-01T00:41:45.276Z,5.00
2022-09-01T00:44:37.360Z,6.28
2022-09-01T00:47:29.634Z,5.20
2022-09-01T00:50:20.365Z,6.45
2022-09-01T00:53:11.705Z,5.55
2022-09-01T00:56:01.944Z,6.10
2022-09-01T00:58:54.874Z,5.25
2022-09-01T01:01:45.672Z,5.47
2022-09-01T01:04:37.882Z,5.30
2022-09-01T01:07:29.692Z,4.93
2022-09-01T01:13:19.487Z,5.20
2022-09-01T01:16:13.995Z,5.43
2022-09-01T01:19:07.540Z,5.10
2022-09-01T01:22:16.086Z,5.15
2022-09-01T01:25:09.151Z,4.75
2022-09-01T01:28:32.189Z,5.00
2022-09-01T01:31:30.263Z,5.55
2022-09-01T01:34:21.971Z,5.05
2022-09-01T01:37:16.437Z,5.00
2022-09-01T01:40:16.693Z,4.93
2022-09-01T01:43:07.938Z,4.65
2022-09-01T01:46:04.373Z,4.88
2022-09-01T01:48:59.230Z,4.85
2022-09-01T01:51:59.857Z,4.50
2022-09-01T01:54:53.097Z,5.57
2022-09-01T01:57:51.700Z,5.22
2022-09-01T02:00:46.115Z,5.93
2022-09-01T02:03:39.869Z,5.30
2022-09-01T02:06:32.114Z,4.70
2022-09-01T02:09:24.694Z,4.95
2022-09-01T02:12:15.929Z,5.55
2022-09-01T02:15:08.970Z,5.18
2022-09-01T02:18:04.917Z,5.10
2022-09-01T02:20:57.937Z,4.90
2022-09-01T02:24:01.404Z,4.55
2022-09-01T02:26:56.432Z,4.40
2022-09-01T02:29:46.570Z,5.00
2022-09-01T02:32:37.066Z,4.65
2022-09-01T02:35:32.997Z,5.38
2022-09-01T02:38:25.582Z,5.18
2022-09-01T02:41:17.751Z,4.97
2022-09-01T02:44:16.030Z,4.60
2022-09-01T02:47:12.154Z,5.20
2022-09-01T02:50:03.354Z,4.40
2022-09-01T02:52:55.976Z,4.57
2022-09-01T02:55:46.270Z,4.95
2022-09-01T02:58:43.149Z,4.78
2022-09-01T03:01:36.625Z,5.47
2022-09-01T03:04:30.665Z,4.65
2022-09-01T03:07:23.402Z,4.00
2022-09-01T03:10:13.945Z,4.43
2022-09-01T03:13:16.349Z,5.35
2022-09-01T03:16:08.355Z,4.35
2022-09-01T03:19:00.337Z,4.90
2022-09-01T03:21:51.239Z,4.70
2022-09-01T03:24:45.861Z,4.90
2022-09-01T03:27:38.678Z,4.30
2022-09-01T03:30:31.595Z,5.95
2022-09-01T03:33:24.575Z,4.00
2022-09-01T03:36:20.876Z,4.45
2022-09-01T03:39:16.368Z,4.22
2022-09-01T03:42:10.076Z,5.18
2022-09-01T03:45:00.905Z,4.95
2022-09-01T03:47:51.788Z,5.43
2022-09-01T03:50:46.306Z,4.72
2022-09-01T03:53:39.865Z,3.90
2022-09-01T03:56:31.538Z,3.50
2022-09-01T03:59:23.889Z,4.32
2022-09-01T04:02:14.775Z,3.95
2022-09-01T04:05:08.455Z,6.32
2022-09-01T04:08:05.263Z,7.35
2022-09-01T04:10:57.313Z,4.40
2022-09-01T04:13:48.366Z,4.47
2022-09-01T04:16:57.880Z,4.60
2022-09-01T04:19:48.708Z,4.00
2022-09-01T04:22:39.909Z,4.07
2022-09-01T04:25:32.259Z,4.43
2022-09-01T04:28:25.803Z,4.95
2022-09-01T04:31:22.440Z,4.82
2022-09-01T04:34:18.112Z,3.80
2022-09-01T04:37:19.546Z,4.22
2022-09-01T04:40:12.869Z,4.53
2022-09-01T04:43:03.223Z,4.10
2022-09-01T04:45:55.729Z,4.70
2022-09-01T04:48:46.598Z,3.92
2022-09-01T04:51:45.298Z,3.95
2022-09-01T04:54:39.463Z,4.00
2022-09-01T04:57:30.592Z,5.57
2022-09-01T05:00:24.019Z,4.40
2022-09-01T05:03:14.657Z,6.40
2022-09-01T05:06:27.862Z,3.88
2022-09-01T05:09:22.319Z,4.72
2022-09-01T05:12:24.593Z,4.43
2022-09-01T05:15:18.461Z,4.40
2022-09-01T05:18:11.711Z,4.03
2022-09-01T05:21:12.276Z,5.47
2022-09-01T05:24:03.176Z,4.30
2022-09-01T05:26:53.940Z,4.10
2022-09-01T05:29:44.113Z,5.15
2022-09-01T05:32:34.958Z,3.92
2022-09-01T05:35:32.950Z,4.68
2022-09-01T05:38:25.635Z,3.35
2022-09-01T05:41:19.537Z,5.20
2022-09-01T05:44:10.365Z,4.63
2022-09-01T05:47:01.560Z,5.20
2022-09-01T05:49:55.542Z,3.85
2022-09-01T05:52:49.232Z,3.83
2022-09-01T05:55:40.762Z,4.47
2022-09-01T05:59:22.436Z,4.35
2022-09-01T06:01:46.850Z,4.57
2022-09-01T06:04:44.951Z,4.70
2022-09-01T06:07:41.821Z,4.90
2022-09-01T06:10:36.999Z,4.65
2022-09-01T06:13:28.930Z,4.47
2022-09-01T06:16:22.193Z,5.55
2022-09-01T06:19:14.366Z,5.53
2022-09-01T06:22:11.801Z,4.20
2022-09-01T06:25:03.430Z,3.80
2022-09-01T06:28:00.580Z,4.35
2022-09-01T06:30:52.359Z,5.53
2022-09-01T06:33:45.541Z,5.13
2022-09-01T06:36:38.428Z,3.80
2022-09-01T06:39:28.669Z,4.40
2022-09-01T06:42:18.987Z,4.35
2022-09-01T06:45:16.520Z,5.50
2022-09-01T06:48:09.305Z,4.32
2022-09-01T06:54:21.411Z,4.60
2022-09-01T07:00:23.611Z,4.72
2022-09-01T07:03:16.637Z,4.50
2022-09-01T07:09:49.640Z,4.80
2022-09-01T07:13:07.815Z,5.75
2022-09-01T07:19:14.602Z,5.30
2022-09-01T07:25:48.241Z,5.15
2022-09-01T07:29:01.091Z,6.15
2022-09-01T07:32:43.699Z,7.03
2022-09-01T07:35:02.204Z,5.57
2022-09-01T07:42:56.480Z,4.93
2022-09-01T07:42:57.175Z,5.78
2022-09-01T07:44:34.989Z,4.53
2022-09-01T07:47:59.372Z,5.70
2022-09-01T07:54:07.055Z,6.22
2022-09-01T07:56:57.788Z,5.97
2022-09-01T07:59:48.082Z,5.20
2022-09-01T08:02:42.390Z,5.80
2022-09-01T08:05:36.178Z,6.18
2022-09-01T08:08:29.231Z,5.07
2022-09-01T08:11:58.218Z,5.72
2022-09-01T08:14:36.178Z,5.30
2022-09-01T08:17:50.471Z,5.72
2022-09-01T08:20:46.745Z,7.80
2022-09-01T08:24:15.769Z,5.47
2022-09-01T08:27:06.658Z,5.03
2022-09-01T08:29:57.146Z,6.00
2022-09-01T08:32:48.571Z,5.70
2022-09-01T08:35:41.171Z,6.22
2022-09-01T08:38:31.954Z,5.32
2022-09-01T08:41:52.024Z,7.78
2022-09-01T08:45:00.338Z,4.63
2022-09-01T08:48:36.788Z,4.55
2022-09-01T08:51:37.536Z,4.88
2022-09-01T08:54:38.898Z,5.20
2022-09-01T08:57:43.119Z,9.63
2022-09-01T09:00:51.562Z,6.65
2022-09-01T09:04:12.562Z,5.97
2022-09-01T09:07:22.475Z,6.18
2022-09-01T09:10:28.283Z,6.30
2022-09-01T09:13:50.106Z,7.25
2022-09-01T09:16:44.674Z,5.15
2022-09-01T09:19:41.107Z,5.70
2022-09-01T09:22:32.618Z,5.70
2022-09-01T09:25:22.081Z,7.50
2022-09-01T09:28:12.962Z,5.80
2022-09-01T09:31:28.469Z,5.63
2022-09-01T09:34:21.331Z,5.85
2022-09-01T09:37:24.279Z,7.28
2022-09-01T09:40:19.472Z,5.50
2022-09-01T09:43:10.696Z,5.57
2022-09-01T09:46:24.566Z,5.65
2022-09-01T09:49:36.582Z,6.75
2022-09-01T09:52:28.665Z,6.65
2022-09-01T09:55:30.740Z,5.27
2022-09-01T09:58:28.123Z,6.63
2022-09-01T10:01:24.767Z,6.07
2022-09-01T10:04:34.217Z,5.38
2022-09-01T10:07:39.380Z,6.07
2022-09-01T10:10:57.557Z,5.78
2022-09-01T10:13:47.862Z,7.93
2022-09-01T10:16:45.871Z,7.03
2022-09-01T10:19:41.261Z,6.05
2022-09-01T10:22:34.905Z,4.78
2022-09-01T10:25:32.299Z,5.07
2022-09-01T10:28:25.853Z,5.50
2022-09-01T10:31:16.551Z,5.72
2022-09-01T10:34:08.979Z,6.38
2022-09-01T10:37:00.535Z,6.47
2022-09-01T10:40:13.074Z,6.63
2022-09-01T10:43:38.204Z,6.32
2022-09-01T10:46:39.026Z,6.30
2022-09-01T10:49:31.401Z,6.78
2022-09-01T10:52:50.457Z,6.45
2022-09-01T10:55:47.910Z,5.47
2022-09-01T11:05:33.150Z,7.68
2022-09-01T11:08:30.174Z,7.55
2022-09-01T11:11:26.873Z,10.43
2022-09-01T11:14:31.442Z,7.38
2022-09-01T11:17:29.688Z,6.78
2022-09-01T11:20:31.557Z,8.43
2022-09-01T11:23:35.538Z,7.80
2022-09-01T11:26:36.746Z,7.90
2022-09-01T11:30:08.275Z,11.68
2022-09-01T11:33:24.910Z,13.38
2022-09-01T11:36:20.447Z,8.93
2022-09-01T11:39:21.304Z,9.55
2022-09-01T11:42:20.668Z,11.35
2022-09-01T11:45:23.338Z,8.68
2022-09-01T11:51:08.063Z,6.00
2022-09-01T11:54:06.264Z,8.30
2022-09-01T11:56:56.120Z,10.13
2022-09-01T11:59:48.584Z,6.88
2022-09-01T12:02:50.288Z,8.32
2022-09-01T12:05:41.241Z,6.50
2022-09-01T12:08:36.178Z,8.02
2022-09-01T12:11:35.863Z,11.15
2022-09-01T12:14:26.284Z,6.65
2022-09-01T12:17:23.616Z,8.82
2022-09-01T12:20:29.726Z,6.55
2022-09-01T12:23:20.469Z,11.07
2022-09-01T12:26:17.676Z,9.05
2022-09-01T12:29:09.008Z,7.28
2022-09-01T12:32:01.743Z,9.40
2022-09-01T12:35:11.336Z,8.43
2022-09-01T12:38:23.769Z,8.63
2022-09-01T12:41:49.310Z,7.60
2022-09-01T12:44:39.526Z,7.00
2022-09-01T12:47:35.220Z,12.05
2022-09-01T12:50:30.649Z,9.88
2022-09-01T12:53:23.977Z,11.77
2022-09-01T12:56:39.832Z,10.02
2022-09-01T12:59:36.127Z,7.80
2022-09-01T13:02:51.731Z,10.52
2022-09-01T13:05:54.654Z,7.07
2022-09-01T13:08:44.979Z,8.15
2022-09-01T13:14:46.057Z,8.45
2022-09-01T13:17:36.287Z,8.65
2022-09-01T13:20:27.730Z,9.30
2022-09-01T13:23:18.447Z,10.73
2022-09-01T13:26:08.761Z,7.82
2022-09-01T13:29:00.624Z,14.32
2022-09-01T13:35:01.065Z,7.72
2022-09-01T13:37:51.856Z,7.63
2022-09-01T13:40:42.306Z,11.85
2022-09-01T13:43:33.328Z,10.93
2022-09-01T13:46:23.890Z,11.13
2022-09-01T13:52:26.393Z,12.50
2022-09-01T13:55:26.348Z,14.38
2022-09-01T13:58:18.558Z,14.50
2022-09-01T14:01:09.887Z,10.70
2022-09-01T14:04:03.534Z,12.98
2022-09-01T14:06:55.219Z,15.93
2022-09-01T14:09:45.529Z,12.68
2022-09-01T14:12:34.997Z,12.05
2022-09-01T14:15:27.490Z,9.20
2022-09-01T14:18:18.714Z,10.60
2022-09-01T14:21:16.080Z,11.30
2022-09-01T14:27:01.902Z,10.85
2022-09-01T14:29:54.811Z,11.90
2022-09-01T14:35:36.064Z,9.77
2022-09-01T14:38:26.854Z,7.93
2022-09-01T14:41:19.079Z,9.15
2022-09-01T14:44:09.178Z,17.50
2022-09-01T14:47:00.429Z,10.93
2022-09-01T14:49:50.109Z,10.75
2022-09-01T14:52:40.338Z,8.30
2022-09-01T14:55:36.038Z,9.93
2022-09-01T14:58:28.271Z,10.23
2022-09-01T15:01:34.350Z,10.15
2022-09-01T15:04:26.323Z,7.15
2022-09-01T15:07:17.017Z,11.00
2022-09-01T15:10:10.067Z,10.93
2022-09-01T15:13:02.264Z,9.60
2022-09-01T15:15:52.187Z,15.95
2022-09-01T15:18:42.177Z,10.52
2022-09-01T15:21:36.512Z,9.93
2022-09-01T15:24:26.779Z,11.80
2022-09-01T15:27:17.181Z,9.50
2022-09-01T15:30:14.350Z,9.68
2022-09-01T15:33:05.139Z,10.32
2022-09-01T15:35:54.877Z,8.55
2022-09-01T15:38:46.421Z,8.48
2022-09-01T15:41:37.321Z,10.45
2022-09-01T15:44:27.933Z,7.47
2022-09-01T15:47:17.794Z,7.72
2022-09-01T15:50:11.011Z,8.23
2022-09-01T15:53:10.579Z,9.73
2022-09-01T15:56:00.810Z,8.18
2022-09-01T15:59:07.730Z,8.43
2022-09-01T16:01:58.801Z,8.82
2022-09-01T16:04:49.216Z,7.63
2022-09-01T16:07:39.339Z,10.52
2022-09-01T16:10:36.615Z,7.00
2022-09-01T16:13:26.932Z,6.85
2022-09-01T16:16:48.094Z,6.90
2022-09-01T16:20:13.857Z,8.32
2022-09-01T16:23:20.224Z,8.02
2022-09-01T16:26:12.634Z,9.18
2022-09-01T16:29:04.745Z,7.13
2022-09-01T16:31:57.169Z,7.88
2022-09-01T16:34:49.248Z,9.25
2022-09-01T16:37:50.457Z,7.63
2022-09-01T16:40:53.311Z,8.10
2022-09-01T16:43:50.775Z,7.18
2022-09-01T16:47:00.256Z,6.75
2022-09-01T16:50:30.919Z,8.23
2022-09-01T16:53:42.958Z,5.95
2022-09-01T16:56:36.987Z,7.60
2022-09-01T16:59:54.744Z,6.30
2022-09-01T17:03:03.505Z,7.28
2022-09-01T17:06:14.129Z,6.80
2022-09-01T17:09:14.179Z,7.57
2022-09-01T17:12:31.337Z,6.80
2022-09-01T17:15:49.126Z,6.22
2022-09-01T17:19:08.059Z,6.55
2022-09-01T17:22:06.928Z,8.57
2022-09-01T17:28:02.574Z,6.55
2022-09-01T17:31:04.503Z,7.10
2022-09-01T17:34:24.293Z,5.13
2022-09-01T17:37:28.794Z,6.38
2022-09-01T17:40:49.935Z,6.70
2022-09-01T17:43:59.001Z,6.35
2022-09-01T17:47:19.122Z,6.80
2022-09-01T17:50:26.315Z,6.30
2022-09-01T17:53:50.749Z,6.18
2022-09-01T17:56:49.440Z,7.07
2022-09-01T18:00:02.818Z,5.30
2022-09-01T18:03:20.249Z,5.97
2022-09-01T18:06:32.102Z,5.45
2022-09-01T18:09:26.180Z,4.88
2022-09-01T18:12:20.538Z,6.07
2022-09-01T18:15:15.433Z,6.85
2022-09-01T18:18:27.098Z,6.05
2022-09-01T18:21:25.439Z,5.45
2022-09-01T18:24:19.738Z,6.07
2022-09-01T18:27:10.018Z,5.45
2022-09-01T18:30:00.033Z,4.60
2022-09-01T18:33:20.484Z,5.20
2022-09-01T18:36:41.153Z,4.85
2022-09-01T18:39:55.539Z,5.32
2022-09-01T18:43:18.027Z,7.55
2022-09-01T18:46:29.565Z,5.93
2022-09-01T18:49:48.774Z,4.90
2022-09-01T18:53:02.354Z,4.90
2022-09-01T18:56:12.207Z,4.53
2022-09-01T18:59:21.568Z,5.78
2022-09-01T19:03:01.087Z,5.90
2022-09-01T19:05:51.887Z,4.80
2022-09-01T19:08:57.753Z,4.93
2022-09-01T19:12:01.280Z,4.45
2022-09-01T19:15:33.907Z,5.65
2022-09-01T19:18:40.982Z,5.57
2022-09-01T19:21:33.530Z,5.20
2022-09-01T19:24:37.219Z,4.80
2022-09-01T19:27:33.037Z,5.80
2022-09-01T19:30:22.438Z,5.70
2022-09-01T19:33:16.266Z,5.32
2022-09-01T19:36:10.101Z,4.55
2022-09-01T19:39:00.506Z,4.57
2022-09-01T19:41:53.059Z,4.47
2022-09-01T19:45:11.992Z,5.18
2022-09-01T19:48:30.939Z,4.65
2022-09-01T19:51:42.911Z,4.50
2022-09-01T19:55:07.591Z,4.70
2022-09-01T19:58:19.550Z,4.82
2022-09-01T20:01:13.508Z,4.78
2022-09-01T20:04:17.483Z,5.93
2022-09-01T20:07:12.570Z,4.63
2022-09-01T20:10:09.909Z,6.13
2022-09-01T20:13:11.634Z,4.78
2022-09-01T20:16:33.920Z,4.40
2022-09-01T20:19:43.812Z,5.50
2022-09-01T20:23:09.008Z,4.70
2022-09-01T20:26:12.055Z,4.60
2022-09-01T20:29:05.941Z,4.90
2022-09-01T20:32:00.838Z,4.13
2022-09-01T20:35:00.104Z,4.80
2022-09-01T20:37:59.231Z,5.20
2022-09-01T20:40:50.226Z,4.43
2022-09-01T20:43:45.338Z,4.50
2022-09-01T20:46:35.546Z,4.18
2022-09-01T20:49:25.393Z,4.63
2022-09-01T20:52:32.239Z,4.60
2022-09-01T20:55:27.898Z,4.40
2022-09-01T20:58:32.605Z,4.10
2022-09-01T21:01:40.324Z,4.85
2022-09-01T21:04:43.737Z,4.25
2022-09-01T21:07:53.489Z,4.28
2022-09-01T21:11:04.558Z,3.78
2022-09-01T21:14:22.057Z,5.35
2022-09-01T21:17:21.797Z,4.80
2022-09-01T21:20:51.224Z,6.10
2022-09-01T21:23:42.233Z,4.60
2022-09-01T21:26:32.431Z,4.72
2022-09-01T21:29:33.062Z,4.03
2022-09-01T21:32:23.862Z,3.92
2022-09-01T21:35:17.942Z,4.35
2022-09-01T21:38:08.185Z,4.00
2022-09-01T21:41:00.384Z,4.15
2022-09-01T21:43:51.195Z,4.07
2022-09-01T21:46:41.237Z,3.70
2022-09-01T21:49:30.755Z,3.63
2022-09-01T21:52:23.306Z,4.05
2022-09-01T21:55:13.958Z,5.05
2022-09-01T21:58:03.800Z,4.30
2022-09-01T22:00:53.672Z,4.75
2022-09-01T22:03:43.244Z,3.78
2022-09-01T22:06:35.000Z,3.90
2022-09-01T22:09:24.940Z,3.70
2022-09-01T22:12:16.089Z,4.68
2022-09-01T22:15:12.529Z,4.55
2022-09-01T22:18:03.439Z,4.38
2022-09-01T22:21:01.548Z,4.68
2022-09-01T22:23:52.175Z,4.07
2022-09-01T22:26:43.882Z,4.80
2022-09-01T22:29:34.205Z,3.53
2022-09-01T22:32:24.451Z,3.60
2022-09-01T22:35:16.526Z,3.53
2022-09-01T22:38:05.949Z,3.35
2022-09-01T22:41:01.648Z,3.58
2022-09-01T22:43:52.827Z,3.70
2022-09-01T22:46:43.542Z,3.40
2022-09-01T22:49:33.806Z,4.70
2022-09-01T22:52:23.609Z,3.58
2022-09-01T22:55:14.639Z,3.65
2022-09-01T22:58:04.279Z,3.58
2022-09-01T23:01:00.255Z,5.30
2022-09-01T23:03:50.274Z,3.88
2022-09-01T23:06:45.958Z,4.47
2022-09-01T23:09:36.828Z,3.47
2022-09-01T23:12:26.341Z,3.40
2022-09-01T23:15:17.729Z,4.30
2022-09-01T23:18:07.216Z,3.90
2022-09-01T23:20:56.699Z,3.70
2022-09-01T23:23:47.328Z,3.40
2022-09-01T23:26:36.901Z,3.42
2022-09-01T23:29:29.591Z,3.53
2022-09-01T23:32:20.372Z,3.33
2022-09-01T23:35:10.931Z,3.22
2022-09-01T23:38:01.417Z,3.20
2022-09-01T23:40:54.577Z,3.20
2022-09-01T23:43:46.103Z,4.10
2022-09-01T23:46:42.825Z,3.27
2022-09-01T23:49:32.985Z,3.40
2022-09-01T23:52:25.933Z,4.03
2022-09-01T23:55:18.283Z,3.58
2022-09-01T23:58:09.503Z,3.22
